sensor_id;sensor_type;location;lat;lon;timestamp;temperature;humidity
68051;DHT22;54839;51.364;7.246;2022-12-18T00:00:43;-3.00;99.90
68051;DHT22;54839;51.364;7.246;2022-12-18T00:03:09;-2.90;99.90
68051;DHT22;54839;51.364;7.246;2022-12-18T00:05:36;-2.90;99.90
68051;DHT22;54839;51.364;7.246;2022-12-18T00:08:02;-2.90;99.90
68051;DHT22;54839;51.364;7.246;2022-12-18T00:10:28;-2.90;99.90
68051;DHT22;54839;51.364;7.246;2022-12-18T00:12:54;-2.90;99.90
68051;DHT22;54839;51.364;7.246;2022-12-18T00:15:19;-2.90;99.90
68051;DHT22;54839;51.364;7.246;2022-12-18T00:17:45;-3.00;99.90
68051;DHT22;54839;51.364;7.246;2022-12-18T00:20:11;-2.90;99.90
68051;DHT22;54839;51.364;7.246;2022-12-18T00:22:37;-2.80;99.90
68051;DHT22;54839;51.364;7.246;2022-12-18T00:25:03;-2.90;99.90
68051;DHT22;54839;51.364;7.246;2022-12-18T00:27:28;-2.90;99.90
68051;DHT22;54839;51.364;7.246;2022-12-18T00:29:54;-2.90;99.90
68051;DHT22;54839;51.364;7.246;2022-12-18T00:32:20;-2.90;99.90
68051;DHT22;54839;51.364;7.246;2022-12-18T00:34:45;-3.00;99.90
68051;DHT22;54839;51.364;7.246;2022-12-18T00:37:11;-3.00;99.90
68051;DHT22;54839;51.364;7.246;2022-12-18T00:39:36;-3.00;99.90
68051;DHT22;54839;51.364;7.246;2022-12-18T00:42:02;-3.00;99.90
68051;DHT22;54839;51.364;7.246;2022-12-18T00:44:46;-3.10;99.90
68051;DHT22;54839;51.364;7.246;2022-12-18T00:47:12;-3.00;99.90
68051;DHT22;54839;51.364;7.246;2022-12-18T00:49:38;-3.10;99.90
68051;DHT22;54839;51.364;7.246;2022-12-18T00:52:03;-3.00;99.90
68051;DHT22;54839;51.364;7.246;2022-12-18T00:54:29;-2.90;99.90
68051;DHT22;54839;51.364;7.246;2022-12-18T00:56:55;-3.00;99.90
68051;DHT22;54839;51.364;7.246;2022-12-18T00:59:21;-3.00;99.90
68051;DHT22;54839;51.364;7.246;2022-12-18T01:01:47;-3.00;99.90
68051;DHT22;54839;51.364;7.246;2022-12-18T01:04:12;-3.00;99.90
68051;DHT22;54839;51.364;7.246;2022-12-18T01:06:38;-2.90;99.90
68051;DHT22;54839;51.364;7.246;2022-12-18T01:09:04;-2.90;99.90
68051;DHT22;54839;51.364;7.246;2022-12-18T01:11:30;-2.90;99.90
68051;DHT22;54839;51.364;7.246;2022-12-18T01:13:56;-2.90;99.90
68051;DHT22;54839;51.364;7.246;2022-12-18T01:16:22;-3.00;99.90
68051;DHT22;54839;51.364;7.246;2022-12-18T01:18:51;-3.00;99.90
68051;DHT22;54839;51.364;7.246;2022-12-18T01:21:18;-3.10;99.90
68051;DHT22;54839;51.364;7.246;2022-12-18T01:23:43;-3.00;99.90
68051;DHT22;54839;51.364;7.246;2022-12-18T01:26:11;-2.90;99.90
68051;DHT22;54839;51.364;7.246;2022-12-18T01:28:38;-2.90;99.90
68051;DHT22;54839;51.364;7.246;2022-12-18T01:31:24;-3.00;99.90
68051;DHT22;54839;51.364;7.246;2022-12-18T01:33:51;-2.90;99.90
68051;DHT22;54839;51.364;7.246;2022-12-18T01:36:18;-2.90;99.90
68051;DHT22;54839;51.364;7.246;2022-12-18T01:38:44;-2.90;99.90
68051;DHT22;54839;51.364;7.246;2022-12-18T01:41:11;-3.00;99.90
68051;DHT22;54839;51.364;7.246;2022-12-18T01:44:00;-2.90;99.90
68051;DHT22;54839;51.364;7.246;2022-12-18T01:46:27;-3.00;99.90
68051;DHT22;54839;51.364;7.246;2022-12-18T01:48:58;-3.00;99.90
68051;DHT22;54839;51.364;7.246;2022-12-18T01:51:27;-3.10;99.90
68051;DHT22;54839;51.364;7.246;2022-12-18T01:53:53;-3.10;99.90
68051;DHT22;54839;51.364;7.246;2022-12-18T01:56:20;-3.10;99.90
68051;DHT22;54839;51.364;7.246;2022-12-18T01:59:01;-3.10;99.90
68051;DHT22;54839;51.364;7.246;2022-12-18T02:01:29;-3.00;99.90
68051;DHT22;54839;51.364;7.246;2022-12-18T02:03:55;-3.10;99.90
68051;DHT22;54839;51.364;7.246;2022-12-18T02:06:36;-3.10;99.90
68051;DHT22;54839;51.364;7.246;2022-12-18T02:09:15;-3.20;99.90
68051;DHT22;54839;51.364;7.246;2022-12-18T02:12:00;-3.10;99.90
68051;DHT22;54839;51.364;7.246;2022-12-18T02:15:12;-3.10;99.90
68051;DHT22;54839;51.364;7.246;2022-12-18T02:17:43;-3.10;99.90
68051;DHT22;54839;51.364;7.246;2022-12-18T02:20:28;-3.10;99.90
68051;DHT22;54839;51.364;7.246;2022-12-18T02:28:20;-3.00;99.90
68051;DHT22;54839;51.364;7.246;2022-12-18T02:30:50;-2.80;99.90
68051;DHT22;54839;51.364;7.246;2022-12-18T02:33:19;-3.00;99.90
68051;DHT22;54839;51.364;7.246;2022-12-18T02:35:47;-2.90;99.90
68051;DHT22;54839;51.364;7.246;2022-12-18T02:38:14;-2.90;99.90
68051;DHT22;54839;51.364;7.246;2022-12-18T02:40:42;-2.80;99.90
68051;DHT22;54839;51.364;7.246;2022-12-18T02:43:14;-2.90;99.90
68051;DHT22;54839;51.364;7.246;2022-12-18T02:45:53;-2.80;99.90
68051;DHT22;54839;51.364;7.246;2022-12-18T02:48:26;-2.80;99.90
68051;DHT22;54839;51.364;7.246;2022-12-18T02:53:53;-2.70;99.90
68051;DHT22;54839;51.364;7.246;2022-12-18T02:56:30;-2.70;99.90
68051;DHT22;54839;51.364;7.246;2022-12-18T02:59:01;-2.80;99.90
68051;DHT22;54839;51.364;7.246;2022-12-18T03:04:26;-3.00;99.90
68051;DHT22;54839;51.364;7.246;2022-12-18T03:06:57;-3.00;99.90
68051;DHT22;54839;51.364;7.246;2022-12-18T03:09:31;-3.00;99.90
68051;DHT22;54839;51.364;7.246;2022-12-18T03:12:16;-3.00;99.90
68051;DHT22;54839;51.364;7.246;2022-12-18T03:17:26;-2.90;99.90
68051;DHT22;54839;51.364;7.246;2022-12-18T03:19:54;-2.90;99.90
68051;DHT22;54839;51.364;7.246;2022-12-18T03:22:23;-3.00;99.90
68051;DHT22;54839;51.364;7.246;2022-12-18T03:24:54;-3.00;99.90
68051;DHT22;54839;51.364;7.246;2022-12-18T03:27:23;-2.90;99.90
68051;DHT22;54839;51.364;7.246;2022-12-18T03:29:57;-3.00;99.90
68051;DHT22;54839;51.364;7.246;2022-12-18T03:32:41;-3.00;99.90
68051;DHT22;54839;51.364;7.246;2022-12-18T03:35:11;-3.00;99.90
68051;DHT22;54839;51.364;7.246;2022-12-18T03:37:38;-3.00;99.90
68051;DHT22;54839;51.364;7.246;2022-12-18T03:40:05;-3.10;99.90
68051;DHT22;54839;51.364;7.246;2022-12-18T03:42:51;-3.10;99.90
68051;DHT22;54839;51.364;7.246;2022-12-18T03:45:26;-3.00;99.90
68051;DHT22;54839;51.364;7.246;2022-12-18T03:48:03;-2.90;99.90
68051;DHT22;54839;51.364;7.246;2022-12-18T03:50:37;-3.00;99.90
68051;DHT22;54839;51.364;7.246;2022-12-18T03:53:33;-2.90;99.90
68051;DHT22;54839;51.364;7.246;2022-12-18T03:56:02;-3.00;99.90
68051;DHT22;54839;51.364;7.246;2022-12-18T03:58:31;-3.10;99.90
68051;DHT22;54839;51.364;7.246;2022-12-18T04:01:00;-3.20;99.90
68051;DHT22;54839;51.364;7.246;2022-12-18T04:03:28;-3.20;99.90
68051;DHT22;54839;51.364;7.246;2022-12-18T04:05:55;-3.20;99.90
68051;DHT22;54839;51.364;7.246;2022-12-18T04:08:23;-3.30;99.90
68051;DHT22;54839;51.364;7.246;2022-12-18T04:10:49;-3.40;99.90
68051;DHT22;54839;51.364;7.246;2022-12-18T04:13:23;-3.30;99.90
68051;DHT22;54839;51.364;7.246;2022-12-18T04:15:49;-3.40;99.90
68051;DHT22;54839;51.364;7.246;2022-12-18T04:18:14;-3.40;99.90
68051;DHT22;54839;51.364;7.246;2022-12-18T04:20:40;-3.30;99.90
68051;DHT22;54839;51.364;7.246;2022-12-18T04:23:06;-3.40;99.90
68051;DHT22;54839;51.364;7.246;2022-12-18T04:25:31;-3.40;99.90
68051;DHT22;54839;51.364;7.246;2022-12-18T04:27:57;-3.40;99.90
68051;DHT22;54839;51.364;7.246;2022-12-18T04:30:22;-3.40;99.90
68051;DHT22;54839;51.364;7.246;2022-12-18T04:32:48;-3.40;99.90
68051;DHT22;54839;51.364;7.246;2022-12-18T04:35:14;-3.50;99.90
68051;DHT22;54839;51.364;7.246;2022-12-18T04:37:39;-3.40;99.90
68051;DHT22;54839;51.364;7.246;2022-12-18T04:40:05;-3.50;99.90
68051;DHT22;54839;51.364;7.246;2022-12-18T04:42:31;-3.60;99.90
68051;DHT22;54839;51.364;7.246;2022-12-18T04:44:57;-3.40;99.90
68051;DHT22;54839;51.364;7.246;2022-12-18T04:47:22;-3.60;99.90
68051;DHT22;54839;51.364;7.246;2022-12-18T04:49:48;-3.60;99.90
68051;DHT22;54839;51.364;7.246;2022-12-18T04:52:14;-3.60;99.90
68051;DHT22;54839;51.364;7.246;2022-12-18T04:54:39;-3.70;99.90
68051;DHT22;54839;51.364;7.246;2022-12-18T04:57:05;-3.70;99.90
68051;DHT22;54839;51.364;7.246;2022-12-18T04:59:31;-3.80;99.90
68051;DHT22;54839;51.364;7.246;2022-12-18T05:01:56;-3.80;99.90
68051;DHT22;54839;51.364;7.246;2022-12-18T05:04:22;-3.80;99.90
68051;DHT22;54839;51.364;7.246;2022-12-18T05:06:48;-3.90;99.90
68051;DHT22;54839;51.364;7.246;2022-12-18T05:09:13;-3.90;99.90
68051;DHT22;54839;51.364;7.246;2022-12-18T05:11:39;-3.90;99.90
68051;DHT22;54839;51.364;7.246;2022-12-18T05:14:04;-3.90;99.90
68051;DHT22;54839;51.364;7.246;2022-12-18T05:16:30;-3.90;99.90
68051;DHT22;54839;51.364;7.246;2022-12-18T05:18:56;-3.90;99.90
68051;DHT22;54839;51.364;7.246;2022-12-18T05:21:21;-3.70;99.90
68051;DHT22;54839;51.364;7.246;2022-12-18T05:23:47;-3.60;99.90
68051;DHT22;54839;51.364;7.246;2022-12-18T05:26:16;-3.50;99.90
68051;DHT22;54839;51.364;7.246;2022-12-18T05:28:42;-3.60;99.90
68051;DHT22;54839;51.364;7.246;2022-12-18T05:31:08;-3.60;99.90
68051;DHT22;54839;51.364;7.246;2022-12-18T05:33:34;-3.50;99.90
68051;DHT22;54839;51.364;7.246;2022-12-18T05:36:01;-3.50;99.90
68051;DHT22;54839;51.364;7.246;2022-12-18T05:38:28;-3.60;99.90
68051;DHT22;54839;51.364;7.246;2022-12-18T05:40:54;-3.50;99.90
68051;DHT22;54839;51.364;7.246;2022-12-18T05:43:21;-3.30;99.90
68051;DHT22;54839;51.364;7.246;2022-12-18T05:45:47;-3.30;99.90
68051;DHT22;54839;51.364;7.246;2022-12-18T05:48:13;-3.20;99.90
68051;DHT22;54839;51.364;7.246;2022-12-18T05:50:41;-2.90;99.90
68051;DHT22;54839;51.364;7.246;2022-12-18T05:53:08;-3.00;99.90
68051;DHT22;54839;51.364;7.246;2022-12-18T05:55:34;-2.80;99.90
68051;DHT22;54839;51.364;7.246;2022-12-18T05:58:02;-2.70;99.90
68051;DHT22;54839;51.364;7.246;2022-12-18T06:00:28;-2.70;99.90
68051;DHT22;54839;51.364;7.246;2022-12-18T06:02:54;-2.70;99.90
68051;DHT22;54839;51.364;7.246;2022-12-18T06:05:20;-2.70;99.90
68051;DHT22;54839;51.364;7.246;2022-12-18T06:07:45;-2.70;99.90
68051;DHT22;54839;51.364;7.246;2022-12-18T06:10:11;-2.70;99.90
68051;DHT22;54839;51.364;7.246;2022-12-18T06:12:37;-2.70;99.90
68051;DHT22;54839;51.364;7.246;2022-12-18T06:15:03;-2.80;99.90
68051;DHT22;54839;51.364;7.246;2022-12-18T06:17:32;-3.00;99.90
68051;DHT22;54839;51.364;7.246;2022-12-18T06:19:59;-2.90;99.90
68051;DHT22;54839;51.364;7.246;2022-12-18T06:22:25;-2.90;99.90
68051;DHT22;54839;51.364;7.246;2022-12-18T06:24:51;-2.90;99.90
68051;DHT22;54839;51.364;7.246;2022-12-18T06:27:16;-2.90;99.90
68051;DHT22;54839;51.364;7.246;2022-12-18T06:29:42;-2.90;99.90
68051;DHT22;54839;51.364;7.246;2022-12-18T06:32:08;-2.90;99.90
68051;DHT22;54839;51.364;7.246;2022-12-18T06:34:33;-2.90;99.90
68051;DHT22;54839;51.364;7.246;2022-12-18T06:37:00;-2.90;99.90
68051;DHT22;54839;51.364;7.246;2022-12-18T06:39:27;-2.80;99.90
68051;DHT22;54839;51.364;7.246;2022-12-18T06:41:53;-3.00;99.90
68051;DHT22;54839;51.364;7.246;2022-12-18T06:44:19;-3.20;99.90
68051;DHT22;54839;51.364;7.246;2022-12-18T06:46:45;-3.30;99.90
68051;DHT22;54839;51.364;7.246;2022-12-18T06:49:10;-3.40;99.90
68051;DHT22;54839;51.364;7.246;2022-12-18T06:51:36;-3.40;99.90
68051;DHT22;54839;51.364;7.246;2022-12-18T06:54:02;-3.40;99.90
68051;DHT22;54839;51.364;7.246;2022-12-18T06:56:28;-3.30;99.90
68051;DHT22;54839;51.364;7.246;2022-12-18T06:58:54;-3.30;99.90
68051;DHT22;54839;51.364;7.246;2022-12-18T07:01:20;-3.30;99.90
68051;DHT22;54839;51.364;7.246;2022-12-18T07:03:46;-3.50;99.90
68051;DHT22;54839;51.364;7.246;2022-12-18T07:06:20;-3.50;99.90
68051;DHT22;54839;51.364;7.246;2022-12-18T07:08:47;-3.50;99.90
68051;DHT22;54839;51.364;7.246;2022-12-18T07:11:13;-3.40;99.90
68051;DHT22;54839;51.364;7.246;2022-12-18T07:13:39;-3.30;99.90
68051;DHT22;54839;51.364;7.246;2022-12-18T07:16:06;-3.10;99.90
68051;DHT22;54839;51.364;7.246;2022-12-18T07:18:31;-3.10;99.90
68051;DHT22;54839;51.364;7.246;2022-12-18T07:20:57;-3.10;99.90
68051;DHT22;54839;51.364;7.246;2022-12-18T07:23:23;-3.10;99.90
68051;DHT22;54839;51.364;7.246;2022-12-18T07:25:48;-3.00;99.90
68051;DHT22;54839;51.364;7.246;2022-12-18T07:28:14;-3.00;99.90
68051;DHT22;54839;51.364;7.246;2022-12-18T07:30:40;-2.90;99.90
68051;DHT22;54839;51.364;7.246;2022-12-18T07:33:05;-2.80;99.90
68051;DHT22;54839;51.364;7.246;2022-12-18T07:35:33;-2.80;99.90
68051;DHT22;54839;51.364;7.246;2022-12-18T07:37:59;-2.90;99.90
68051;DHT22;54839;51.364;7.246;2022-12-18T07:40:25;-2.70;99.90
68051;DHT22;54839;51.364;7.246;2022-12-18T07:42:51;-2.70;99.90
68051;DHT22;54839;51.364;7.246;2022-12-18T07:45:16;-2.70;99.90
68051;DHT22;54839;51.364;7.246;2022-12-18T07:47:42;-2.60;99.90
68051;DHT22;54839;51.364;7.246;2022-12-18T07:50:08;-2.50;99.90
68051;DHT22;54839;51.364;7.246;2022-12-18T07:52:33;-2.60;99.90
68051;DHT22;54839;51.364;7.246;2022-12-18T07:54:59;-2.50;99.90
68051;DHT22;54839;51.364;7.246;2022-12-18T07:57:25;-2.40;99.90
68051;DHT22;54839;51.364;7.246;2022-12-18T07:59:50;-2.40;99.90
68051;DHT22;54839;51.364;7.246;2022-12-18T08:02:16;-2.30;99.90
68051;DHT22;54839;51.364;7.246;2022-12-18T08:04:42;-2.20;99.90
68051;DHT22;54839;51.364;7.246;2022-12-18T08:07:07;-1.80;99.90
68051;DHT22;54839;51.364;7.246;2022-12-18T08:09:33;-1.60;99.90
68051;DHT22;54839;51.364;7.246;2022-12-18T08:11:58;-1.30;99.90
68051;DHT22;54839;51.364;7.246;2022-12-18T08:14:24;-1.20;99.90
68051;DHT22;54839;51.364;7.246;2022-12-18T08:16:50;-1.20;99.90
68051;DHT22;54839;51.364;7.246;2022-12-18T08:19:15;-1.20;99.90
68051;DHT22;54839;51.364;7.246;2022-12-18T08:21:41;-1.10;99.90
68051;DHT22;54839;51.364;7.246;2022-12-18T08:24:08;-1.20;99.90
68051;DHT22;54839;51.364;7.246;2022-12-18T08:26:34;-0.90;99.90
68051;DHT22;54839;51.364;7.246;2022-12-18T08:29:00;-0.90;99.90
68051;DHT22;54839;51.364;7.246;2022-12-18T08:31:27;-1.10;99.90
68051;DHT22;54839;51.364;7.246;2022-12-18T08:33:54;-1.10;99.90
68051;DHT22;54839;51.364;7.246;2022-12-18T08:36:20;-1.00;99.90
68051;DHT22;54839;51.364;7.246;2022-12-18T08:38:46;-0.90;99.90
68051;DHT22;54839;51.364;7.246;2022-12-18T08:41:13;-0.90;99.90
68051;DHT22;54839;51.364;7.246;2022-12-18T08:43:39;-0.80;99.90
68051;DHT22;54839;51.364;7.246;2022-12-18T08:46:25;-0.70;99.90
68051;DHT22;54839;51.364;7.246;2022-12-18T08:48:53;-0.70;99.90
68051;DHT22;54839;51.364;7.246;2022-12-18T08:51:19;-0.60;99.90
68051;DHT22;54839;51.364;7.246;2022-12-18T08:53:45;-0.60;99.90
68051;DHT22;54839;51.364;7.246;2022-12-18T08:56:12;-0.60;99.90
68051;DHT22;54839;51.364;7.246;2022-12-18T08:58:38;-0.60;99.90
68051;DHT22;54839;51.364;7.246;2022-12-18T09:01:05;-0.50;99.90
68051;DHT22;54839;51.364;7.246;2022-12-18T09:03:31;-0.20;99.90
68051;DHT22;54839;51.364;7.246;2022-12-18T09:05:58;-0.30;99.90
68051;DHT22;54839;51.364;7.246;2022-12-18T09:08:23;0.00;99.90
68051;DHT22;54839;51.364;7.246;2022-12-18T09:10:50;0.20;99.90
68051;DHT22;54839;51.364;7.246;2022-12-18T09:13:16;0.30;99.90
68051;DHT22;54839;51.364;7.246;2022-12-18T09:15:43;0.40;99.90
68051;DHT22;54839;51.364;7.246;2022-12-18T09:18:10;0.70;99.90
68051;DHT22;54839;51.364;7.246;2022-12-18T09:20:37;0.60;99.90
68051;DHT22;54839;51.364;7.246;2022-12-18T09:23:03;0.70;99.90
68051;DHT22;54839;51.364;7.246;2022-12-18T09:25:29;0.70;99.90
68051;DHT22;54839;51.364;7.246;2022-12-18T09:28:09;0.70;99.90
68051;DHT22;54839;51.364;7.246;2022-12-18T09:30:38;0.80;99.90
68051;DHT22;54839;51.364;7.246;2022-12-18T09:33:04;0.80;99.90
68051;DHT22;54839;51.364;7.246;2022-12-18T09:35:29;0.90;99.90
68051;DHT22;54839;51.364;7.246;2022-12-18T09:37:55;0.90;99.90
68051;DHT22;54839;51.364;7.246;2022-12-18T09:40:23;0.80;99.90
68051;DHT22;54839;51.364;7.246;2022-12-18T09:42:57;0.90;99.90
68051;DHT22;54839;51.364;7.246;2022-12-18T09:45:24;1.10;99.90
68051;DHT22;54839;51.364;7.246;2022-12-18T09:47:52;1.10;99.90
68051;DHT22;54839;51.364;7.246;2022-12-18T09:50:32;1.20;99.90
68051;DHT22;54839;51.364;7.246;2022-12-18T09:53:04;1.10;99.90
68051;DHT22;54839;51.364;7.246;2022-12-18T09:55:34;1.20;99.90
68051;DHT22;54839;51.364;7.246;2022-12-18T09:58:06;1.20;99.90
68051;DHT22;54839;51.364;7.246;2022-12-18T10:00:37;1.20;99.90
68051;DHT22;54839;51.364;7.246;2022-12-18T10:03:09;1.40;99.90
68051;DHT22;54839;51.364;7.246;2022-12-18T10:06:06;1.30;99.90
68051;DHT22;54839;51.364;7.246;2022-12-18T10:14:00;1.40;99.90
68051;DHT22;54839;51.364;7.246;2022-12-18T10:16:35;1.50;99.90
68051;DHT22;54839;51.364;7.246;2022-12-18T10:19:25;1.60;99.90
68051;DHT22;54839;51.364;7.246;2022-12-18T10:25:01;1.90;99.90
68051;DHT22;54839;51.364;7.246;2022-12-18T10:27:29;1.90;99.90
68051;DHT22;54839;51.364;7.246;2022-12-18T10:29:56;1.90;99.90
68051;DHT22;54839;51.364;7.246;2022-12-18T10:32:27;2.00;99.90
68051;DHT22;54839;51.364;7.246;2022-12-18T10:34:56;2.10;99.90
68051;DHT22;54839;51.364;7.246;2022-12-18T10:37:25;2.10;99.90
68051;DHT22;54839;51.364;7.246;2022-12-18T10:40:11;2.20;99.90
68051;DHT22;54839;51.364;7.246;2022-12-18T10:42:37;2.20;99.90
68051;DHT22;54839;51.364;7.246;2022-12-18T10:45:12;2.30;99.90
68051;DHT22;54839;51.364;7.246;2022-12-18T10:47:44;2.30;99.90
68051;DHT22;54839;51.364;7.246;2022-12-18T10:53:00;2.40;99.90
68051;DHT22;54839;51.364;7.246;2022-12-18T10:55:46;2.40;99.90
68051;DHT22;54839;51.364;7.246;2022-12-18T10:58:27;2.50;99.90
68051;DHT22;54839;51.364;7.246;2022-12-18T11:01:07;2.60;99.90
68051;DHT22;54839;51.364;7.246;2022-12-18T11:03:38;2.60;99.90
68051;DHT22;54839;51.364;7.246;2022-12-18T11:06:13;2.70;99.90
68051;DHT22;54839;51.364;7.246;2022-12-18T11:08:41;2.60;99.90
68051;DHT22;54839;51.364;7.246;2022-12-18T11:11:19;2.70;99.90
68051;DHT22;54839;51.364;7.246;2022-12-18T11:16:20;2.60;99.90
68051;DHT22;54839;51.364;7.246;2022-12-18T11:18:46;2.70;99.90
68051;DHT22;54839;51.364;7.246;2022-12-18T11:21:12;2.70;99.90
68051;DHT22;54839;51.364;7.246;2022-12-18T11:23:47;2.80;99.90
68051;DHT22;54839;51.364;7.246;2022-12-18T11:26:14;2.90;99.90
68051;DHT22;54839;51.364;7.246;2022-12-18T11:28:42;2.90;99.90
68051;DHT22;54839;51.364;7.246;2022-12-18T11:33:34;3.00;99.90
68051;DHT22;54839;51.364;7.246;2022-12-18T11:36:03;3.20;99.90
68051;DHT22;54839;51.364;7.246;2022-12-18T11:38:33;3.20;99.90
68051;DHT22;54839;51.364;7.246;2022-12-18T11:43:42;3.40;99.90
68051;DHT22;54839;51.364;7.246;2022-12-18T11:46:14;3.30;99.90
68051;DHT22;54839;51.364;7.246;2022-12-18T11:48:54;3.40;99.90
68051;DHT22;54839;51.364;7.246;2022-12-18T11:51:37;3.50;99.90
68051;DHT22;54839;51.364;7.246;2022-12-18T11:54:13;3.50;99.90
68051;DHT22;54839;51.364;7.246;2022-12-18T11:56:53;3.60;99.90
68051;DHT22;54839;51.364;7.246;2022-12-18T12:10:30;3.50;99.90
68051;DHT22;54839;51.364;7.246;2022-12-18T12:21:41;3.30;99.50
68051;DHT22;54839;51.364;7.246;2022-12-18T12:24:33;3.30;99.90
68051;DHT22;54839;51.364;7.246;2022-12-18T12:27:06;3.30;99.90
68051;DHT22;54839;51.364;7.246;2022-12-18T12:41:08;3.30;99.90
68051;DHT22;54839;51.364;7.246;2022-12-18T12:43:52;3.20;99.90
68051;DHT22;54839;51.364;7.246;2022-12-18T12:46:21;3.20;99.90
68051;DHT22;54839;51.364;7.246;2022-12-18T12:48:59;3.20;99.90
68051;DHT22;54839;51.364;7.246;2022-12-18T12:51:35;3.20;99.90
68051;DHT22;54839;51.364;7.246;2022-12-18T12:54:04;3.10;99.90
68051;DHT22;54839;51.364;7.246;2022-12-18T12:56:50;3.10;99.90
68051;DHT22;54839;51.364;7.246;2022-12-18T13:02:42;3.00;99.90
68051;DHT22;54839;51.364;7.246;2022-12-18T13:07:51;2.90;99.90
68051;DHT22;54839;51.364;7.246;2022-12-18T13:15:44;2.70;99.90
68051;DHT22;54839;51.364;7.246;2022-12-18T13:18:22;2.70;99.90
68051;DHT22;54839;51.364;7.246;2022-12-18T13:31:09;2.30;99.90
68051;DHT22;54839;51.364;7.246;2022-12-18T13:33:38;2.20;99.90
68051;DHT22;54839;51.364;7.246;2022-12-18T13:36:22;2.20;99.90
68051;DHT22;54839;51.364;7.246;2022-12-18T13:42:32;2.10;99.90
68051;DHT22;54839;51.364;7.246;2022-12-18T13:44:59;2.00;99.90
68051;DHT22;54839;51.364;7.246;2022-12-18T13:47:31;2.00;99.90
68051;DHT22;54839;51.364;7.246;2022-12-18T13:49:57;1.80;99.90
68051;DHT22;54839;51.364;7.246;2022-12-18T13:52:28;1.80;99.90
68051;DHT22;54839;51.364;7.246;2022-12-18T13:55:01;1.90;99.90
68051;DHT22;54839;51.364;7.246;2022-12-18T13:57:35;1.80;99.90
68051;DHT22;54839;51.364;7.246;2022-12-18T14:00:26;1.90;99.90
68051;DHT22;54839;51.364;7.246;2022-12-18T14:02:53;1.90;99.90
68051;DHT22;54839;51.364;7.246;2022-12-18T14:05:27;1.90;99.90
68051;DHT22;54839;51.364;7.246;2022-12-18T14:07:54;1.80;99.90
68051;DHT22;54839;51.364;7.246;2022-12-18T14:10:25;1.90;99.90
68051;DHT22;54839;51.364;7.246;2022-12-18T14:12:51;1.70;99.90
68051;DHT22;54839;51.364;7.246;2022-12-18T14:17:59;1.70;99.90
68051;DHT22;54839;51.364;7.246;2022-12-18T14:20:27;1.70;99.90
68051;DHT22;54839;51.364;7.246;2022-12-18T14:22:54;1.60;99.90
68051;DHT22;54839;51.364;7.246;2022-12-18T14:25:24;1.60;99.90
68051;DHT22;54839;51.364;7.246;2022-12-18T14:30:35;1.50;99.90
68051;DHT22;54839;51.364;7.246;2022-12-18T14:35:41;1.40;99.90
68051;DHT22;54839;51.364;7.246;2022-12-18T14:38:18;1.40;99.90
68051;DHT22;54839;51.364;7.246;2022-12-18T14:40:44;1.30;99.90
68051;DHT22;54839;51.364;7.246;2022-12-18T14:43:11;1.20;99.90
68051;DHT22;54839;51.364;7.246;2022-12-18T14:45:39;1.30;99.90
68051;DHT22;54839;51.364;7.246;2022-12-18T14:48:08;1.30;99.90
68051;DHT22;54839;51.364;7.246;2022-12-18T14:50:34;1.20;99.90
68051;DHT22;54839;51.364;7.246;2022-12-18T14:53:00;1.20;99.90
68051;DHT22;54839;51.364;7.246;2022-12-18T14:55:26;1.10;99.90
68051;DHT22;54839;51.364;7.246;2022-12-18T14:57:54;1.10;99.90
68051;DHT22;54839;51.364;7.246;2022-12-18T15:00:23;1.10;99.90
68051;DHT22;54839;51.364;7.246;2022-12-18T15:02:53;1.10;99.90
68051;DHT22;54839;51.364;7.246;2022-12-18T15:05:28;1.00;99.90
68051;DHT22;54839;51.364;7.246;2022-12-18T15:07:56;1.00;99.90
68051;DHT22;54839;51.364;7.246;2022-12-18T15:10:29;1.00;99.90
68051;DHT22;54839;51.364;7.246;2022-12-18T15:18:12;0.90;99.90
68051;DHT22;54839;51.364;7.246;2022-12-18T15:23:04;0.90;99.90
68051;DHT22;54839;51.364;7.246;2022-12-18T15:25:37;0.80;99.90
68051;DHT22;54839;51.364;7.246;2022-12-18T15:28:04;0.80;99.90
68051;DHT22;54839;51.364;7.246;2022-12-18T15:30:58;0.80;99.90
68051;DHT22;54839;51.364;7.246;2022-12-18T15:33:27;0.80;99.90
68051;DHT22;54839;51.364;7.246;2022-12-18T15:36:03;0.70;99.90
68051;DHT22;54839;51.364;7.246;2022-12-18T15:38:30;0.50;99.90
68051;DHT22;54839;51.364;7.246;2022-12-18T15:40:56;0.60;99.90
68051;DHT22;54839;51.364;7.246;2022-12-18T15:43:23;0.70;99.90
68051;DHT22;54839;51.364;7.246;2022-12-18T15:46:08;0.60;99.90
68051;DHT22;54839;51.364;7.246;2022-12-18T15:48:41;0.60;99.90
68051;DHT22;54839;51.364;7.246;2022-12-18T15:51:34;0.60;99.90
68051;DHT22;54839;51.364;7.246;2022-12-18T15:54:03;0.50;99.90
68051;DHT22;54839;51.364;7.246;2022-12-18T15:56:30;0.50;99.90
68051;DHT22;54839;51.364;7.246;2022-12-18T15:59:17;0.60;99.90
68051;DHT22;54839;51.364;7.246;2022-12-18T16:01:45;0.60;99.90
68051;DHT22;54839;51.364;7.246;2022-12-18T16:04:13;0.60;99.90
68051;DHT22;54839;51.364;7.246;2022-12-18T16:06:40;0.60;99.90
68051;DHT22;54839;51.364;7.246;2022-12-18T16:09:06;0.50;99.90
68051;DHT22;54839;51.364;7.246;2022-12-18T16:11:34;0.60;99.90
68051;DHT22;54839;51.364;7.246;2022-12-18T16:14:18;0.40;99.90
68051;DHT22;54839;51.364;7.246;2022-12-18T16:16:49;0.50;99.90
68051;DHT22;54839;51.364;7.246;2022-12-18T16:19:15;0.50;99.90
68051;DHT22;54839;51.364;7.246;2022-12-18T16:21:41;0.50;99.90
68051;DHT22;54839;51.364;7.246;2022-12-18T16:24:18;0.50;99.90
68051;DHT22;54839;51.364;7.246;2022-12-18T16:26:44;0.40;99.90
68051;DHT22;54839;51.364;7.246;2022-12-18T16:29:10;0.50;99.90
68051;DHT22;54839;51.364;7.246;2022-12-18T16:31:36;0.40;99.90
68051;DHT22;54839;51.364;7.246;2022-12-18T16:34:34;0.40;99.90
68051;DHT22;54839;51.364;7.246;2022-12-18T16:37:04;0.40;99.90
68051;DHT22;54839;51.364;7.246;2022-12-18T16:39:30;0.30;99.90
68051;DHT22;54839;51.364;7.246;2022-12-18T16:41:56;0.20;99.90
68051;DHT22;54839;51.364;7.246;2022-12-18T16:44:22;0.20;99.90
68051;DHT22;54839;51.364;7.246;2022-12-18T16:46:48;0.20;99.90
68051;DHT22;54839;51.364;7.246;2022-12-18T16:49:15;0.10;99.90
68051;DHT22;54839;51.364;7.246;2022-12-18T16:51:42;0.00;99.90
68051;DHT22;54839;51.364;7.246;2022-12-18T16:54:08;-0.10;99.90
68051;DHT22;54839;51.364;7.246;2022-12-18T16:56:34;0.00;99.90
68051;DHT22;54839;51.364;7.246;2022-12-18T16:59:01;0.00;99.90
68051;DHT22;54839;51.364;7.246;2022-12-18T17:01:28;-0.10;99.90
68051;DHT22;54839;51.364;7.246;2022-12-18T17:03:56;0.00;99.90
68051;DHT22;54839;51.364;7.246;2022-12-18T17:06:23;-0.10;99.90
68051;DHT22;54839;51.364;7.246;2022-12-18T17:08:57;-0.10;99.90
68051;DHT22;54839;51.364;7.246;2022-12-18T17:11:25;-0.10;99.90
68051;DHT22;54839;51.364;7.246;2022-12-18T17:13:51;-0.10;99.90
68051;DHT22;54839;51.364;7.246;2022-12-18T17:16:17;-0.20;99.90
68051;DHT22;54839;51.364;7.246;2022-12-18T17:18:42;-0.20;99.90
68051;DHT22;54839;51.364;7.246;2022-12-18T17:21:09;-0.20;99.90
68051;DHT22;54839;51.364;7.246;2022-12-18T17:23:36;-0.20;99.90
68051;DHT22;54839;51.364;7.246;2022-12-18T17:26:02;-0.10;99.90
68051;DHT22;54839;51.364;7.246;2022-12-18T17:28:29;-0.10;99.90
68051;DHT22;54839;51.364;7.246;2022-12-18T17:30:55;-0.20;99.90
68051;DHT22;54839;51.364;7.246;2022-12-18T17:33:22;-0.10;99.90
68051;DHT22;54839;51.364;7.246;2022-12-18T17:35:47;-0.10;99.90